Kezdőlap
METAR-TAF:

METAR-TAF

Repülőterek :

Foz do Iguaçu, Paraná, Brazília

földrajzi szélesség: 25-31S, földrajzi hosszúság: 054-35W, magasság: 180 m

Jelenlegi meteorológiai megfigyelések

A jelentés 46 perccel ezelõtt készült, 01:00 UTC
Kelet-délkeleti szél 6 kt
Hőmérséklet 20°C
Páratartalom 78%
Légköri nyomás 1019 hPa
Látótávolság 10 km, vagy több
felhőtlen 1500 m magasságban, és nincs gomolyfelhõ

METAR: SBFI 210100Z 11006KT CAVOK 20/16 Q1019

Idő: 22:46 (01:46 UTC)

Előrejelzés

A jelentés 4 órával és 46 perccel ezelõtt készült, 21:00 UTC
Az előrejelzés 21-én 00 óra UTC és 21-én 24 óra UTC között érvényes
Keleti szél 4 kt
Látótávolság 10 km, vagy több
felhőtlen 1500 m magasságban, és nincs gomolyfelhõ

TAF: SBFI 202100Z 2100/2124 09004KT CAVOK TN14/2108Z TX25/2117Z RMK PFP

Meteorológiai megfigyelések és előrejelzések több, mint 4000 repülőtéren (METAR és TAF jelentéseket).

A térképen piros és sárga pontok jelzik az elérhető meteorológiai állomásokat.

Mozgassa az egeret a pont fölött, hogy megjelenjen az állomás neve.

Azután kattintson az időjárási megfigyelések és előrejelzések megtekintéséhez.

A térkép megváltoztatása: kattintson a fekete keresztel jelölt zöld gombra ráközelítéshez, a vonallal jelölt zöld gombra távolításhoz, vagy a zöld nyilakra a szomszédos térképek eléréséhez.


METAR-TAF: